Time,TemperatureF,DewpointF,PressureIn,WindDirection,WindDirectionDegrees,WindSpeedMPH,WindSpeedGustMPH,Humidity,HourlyPrecipIn,Conditions,Clouds,dailyrainin,SoftwareType,DateUTC
2013-02-23 00:03:00,36.0,35.0,-100.00,ENE,75,2.0,3.0,96,0.01,,,-99.99,,2013-02-23 05:03:00,
2013-02-23 00:12:00,36.0,35.0,-100.00,ENE,78,2.0,4.0,96,0.06,,,-99.99,,2013-02-23 05:12:00,
2013-02-23 00:23:00,36.0,35.0,-100.00,East,93,2.0,4.0,97,0.03,,,0.32,,2013-02-23 05:23:00,
2013-02-23 00:33:00,36.0,35.0,-100.00,East,93,2.0,4.0,97,0.03,,,0.32,,2013-02-23 05:33:00,
2013-02-23 00:42:00,36.0,35.0,-100.00,East,93,2.0,4.0,97,0.03,,,0.32,,2013-02-23 05:42:00,
2013-02-23 00:52:00,36.0,35.0,-100.00,East,95,2.0,4.0,97,0.01,,,0.33,,2013-02-23 05:52:00,
2013-02-23 01:02:00,36.0,35.0,-100.00,East,95,2.0,4.0,97,0.01,,,0.33,,2013-02-23 06:02:00,
2013-02-23 01:11:00,36.0,35.0,-100.00,ESE,110,3.0,5.0,97,0.00,,,0.33,,2013-02-23 06:11:00,
2013-02-23 01:23:00,36.0,35.0,-100.00,East,80,2.0,4.0,97,0.01,,,0.34,,2013-02-23 06:23:00,
2013-02-23 01:32:00,36.0,35.0,-100.00,East,80,2.0,4.0,97,0.01,,,0.34,,2013-02-23 06:32:00,
2013-02-23 01:42:00,36.0,35.0,-100.00,East,80,2.0,4.0,97,0.01,,,0.34,,2013-02-23 06:42:00,
2013-02-23 01:52:00,36.0,35.0,-100.00,ENE,71,2.0,3.0,97,0.13,,,0.35,,2013-02-23 06:52:00,
2013-02-23 02:01:00,36.0,35.0,-100.00,NNE,25,4.0,5.0,98,0.43,,,-99.99,,2013-02-23 07:01:00,
2013-02-23 02:11:00,36.0,35.0,-100.00,NNE,25,4.0,5.0,98,0.43,,,-99.99,,2013-02-23 07:11:00,
2013-02-23 02:21:00,36.0,35.0,-100.00,NNE,25,4.0,5.0,98,0.43,,,-99.99,,2013-02-23 07:21:00,
2013-02-23 02:32:00,36.0,35.0,-100.00,NNE,23,6.0,10.0,98,0.06,,,-99.99,,2013-02-23 07:32:00,
2013-02-23 02:40:00,36.0,35.0,-100.00,NE,55,4.0,6.0,98,0.01,,,-99.99,,2013-02-23 07:40:00,
2013-02-23 02:42:00,36.0,35.0,-100.00,NNE,23,6.0,10.0,98,0.06,,,-99.99,,2013-02-23 07:42:00,
2013-02-23 02:52:00,36.0,36.0,-100.00,NE,41,5.0,7.0,98,0.06,,,-99.99,,2013-02-23 07:52:00,
2013-02-23 03:01:00,36.0,36.0,-100.00,NE,41,5.0,7.0,98,0.06,,,-99.99,,2013-02-23 08:01:00,
2013-02-23 03:11:00,36.0,36.0,-100.00,NE,41,5.0,7.0,98,0.06,,,-99.99,,2013-02-23 08:11:00,
2013-02-23 03:20:00,36.0,36.0,-100.00,East,86,4.0,6.0,98,0.00,,,-99.99,,2013-02-23 08:20:00,
2013-02-23 03:21:00,36.0,35.0,-100.00,NE,55,4.0,6.0,98,0.01,,,-99.99,,2013-02-23 08:21:00,
2013-02-23 03:32:00,36.0,35.0,-100.00,NE,55,4.0,6.0,98,0.01,,,-99.99,,2013-02-23 08:32:00,
2013-02-23 03:53:00,36.0,36.0,-100.00,East,86,4.0,6.0,98,0.00,,,-99.99,,2013-02-23 08:53:00,
2013-02-23 04:02:00,36.0,36.0,-100.00,East,86,4.0,6.0,98,0.00,,,-99.99,,2013-02-23 09:02:00,
2013-02-23 04:11:00,36.0,36.0,-100.00,East,86,4.0,6.0,98,0.00,,,-99.99,,2013-02-23 09:11:00,
2013-02-23 04:42:00,36.0,36.0,-100.00,ESE,109,4.0,6.0,98,0.00,,,-99.99,,2013-02-23 09:42:00,
2013-02-23 04:52:00,36.0,36.0,-100.00,ESE,109,4.0,6.0,98,0.00,,,-99.99,,2013-02-23 09:52:00,
2013-02-23 05:01:00,36.0,36.0,-100.00,NE,41,6.0,8.0,98,0.00,,,-99.99,,2013-02-23 10:01:00,
2013-02-23 05:11:00,36.0,36.0,-100.00,NE,41,6.0,8.0,98,0.00,,,-99.99,,2013-02-23 10:11:00,
2013-02-23 05:21:00,36.0,36.0,-100.00,ESE,109,0.0,2.0,98,-99.99,,,-99.99,,2013-02-23 10:21:00,
2013-02-23 05:32:00,36.0,36.0,-100.00,ESE,109,0.0,2.0,98,-99.99,,,-99.99,,2013-02-23 10:32:00,
2013-02-23 05:42:00,36.0,36.0,-100.00,ESE,109,0.0,2.0,98,-99.99,,,-99.99,,2013-02-23 10:42:00,
2013-02-23 05:52:00,36.0,36.0,-100.00,NE,48,3.0,5.0,98,0.00,,,-99.99,,2013-02-23 10:52:00,
2013-02-23 06:02:00,36.0,36.0,-100.00,NE,48,3.0,5.0,98,0.00,,,-99.99,,2013-02-23 11:02:00,
2013-02-23 06:11:00,36.0,36.0,-100.00,NNE,18,2.0,4.0,98,0.00,,,-99.99,,2013-02-23 11:11:00,
2013-02-23 06:22:00,36.0,36.0,-100.00,NNE,18,2.0,4.0,98,0.00,,,-99.99,,2013-02-23 11:22:00,
2013-02-23 06:32:00,36.0,36.0,-100.00,NNW,344,4.0,6.0,97,0.00,,,-99.99,,2013-02-23 11:32:00,
2013-02-23 06:42:00,36.0,36.0,-100.00,NNW,344,4.0,6.0,97,0.00,,,-99.99,,2013-02-23 11:42:00,
2013-02-23 06:53:00,36.0,36.0,-100.00,North,8,3.0,5.0,97,0.10,,,-99.99,,2013-02-23 11:53:00,
2013-02-23 07:02:00,36.0,36.0,-100.00,North,8,3.0,5.0,97,0.10,,,-99.99,,2013-02-23 12:02:00,
2013-02-23 07:11:00,36.0,36.0,-100.00,NNE,20,5.0,8.0,97,0.20,,,-99.99,,2013-02-23 12:11:00,
2013-02-23 07:21:00,36.0,36.0,-100.00,NNE,20,5.0,8.0,97,0.20,,,-99.99,,2013-02-23 12:21:00,
2013-02-23 07:32:00,36.0,36.0,-100.00,NE,42,5.0,9.0,97,0.09,,,-99.99,,2013-02-23 12:32:00,
2013-02-23 07:42:00,36.0,36.0,-100.00,NE,42,5.0,9.0,97,0.09,,,-99.99,,2013-02-23 12:42:00,
2013-02-23 07:53:00,36.0,35.0,-100.00,NE,41,6.0,9.0,98,0.23,,,-99.99,,2013-02-23 12:53:00,
2013-02-23 08:02:00,36.0,35.0,-100.00,NE,41,6.0,9.0,98,0.23,,,-99.99,,2013-02-23 13:02:00,
2013-02-23 08:12:00,36.0,35.0,-100.00,NE,41,3.0,5.0,98,0.30,,,-99.99,,2013-02-23 13:12:00,
2013-02-23 08:22:00,36.0,35.0,-100.00,East,99,3.0,4.0,98,0.09,,,-99.99,,2013-02-23 13:22:00,
2013-02-23 08:32:00,36.0,35.0,-100.00,East,99,3.0,4.0,98,0.09,,,-99.99,,2013-02-23 13:32:00,
2013-02-23 08:40:00,36.0,36.0,-100.00,ENE,73,2.0,4.0,98,0.17,,,-99.99,,2013-02-23 13:40:00,
2013-02-23 08:42:00,36.0,36.0,-100.00,East,92,2.0,3.0,98,0.00,,,-99.99,,2013-02-23 13:42:00,
2013-02-23 08:52:00,36.0,36.0,-100.00,East,92,2.0,3.0,98,0.00,,,-99.99,,2013-02-23 13:52:00,
2013-02-23 09:02:00,36.0,36.0,-100.00,East,92,2.0,3.0,98,0.00,,,-99.99,,2013-02-23 14:02:00,
2013-02-23 09:11:00,36.0,36.0,-100.00,ENE,73,2.0,4.0,98,0.17,,,-99.99,,2013-02-23 14:11:00,
2013-02-23 09:21:00,36.0,36.0,-100.00,ENE,73,2.0,4.0,98,0.17,,,-99.99,,2013-02-23 14:21:00,
2013-02-23 09:32:00,36.0,36.0,-100.00,ENE,73,2.0,4.0,98,0.17,,,-99.99,,2013-02-23 14:32:00,
2013-02-23 09:52:00,37.0,36.0,-100.00,NW,311,2.0,4.0,98,0.10,,,-99.99,,2013-02-23 14:52:00,
2013-02-23 10:02:00,37.0,36.0,-100.00,NW,311,2.0,4.0,98,0.10,,,-99.99,,2013-02-23 15:02:00,
2013-02-23 10:11:00,37.0,36.0,-100.00,NNE,13,3.0,5.0,98,0.26,,,-99.99,,2013-02-23 15:11:00,
2013-02-23 10:22:00,37.0,36.0,-100.00,NNE,13,3.0,5.0,98,0.26,,,-99.99,,2013-02-23 15:22:00,
2013-02-23 10:32:00,37.0,36.0,-100.00,NNW,343,2.0,5.0,98,0.21,,,-99.99,,2013-02-23 15:32:00,
2013-02-23 10:42:00,37.0,36.0,-100.00,NNW,343,2.0,5.0,98,0.21,,,-99.99,,2013-02-23 15:42:00,
2013-02-23 10:52:00,-999.0,36.0,-100.00,NNE,32,4.0,6.0,-999,0.00,,,-99.99,,2013-02-23 15:52:00,
2013-02-23 11:01:00,-999.0,36.0,-100.00,NNE,32,4.0,6.0,-999,0.00,,,-99.99,,2013-02-23 16:01:00,
2013-02-23 11:11:00,37.0,36.0,-100.00,NE,49,1.0,2.0,98,0.00,,,-99.99,,2013-02-23 16:11:00,
2013-02-23 11:22:00,37.0,36.0,-100.00,NE,49,1.0,2.0,98,0.00,,,-99.99,,2013-02-23 16:22:00,
2013-02-23 11:32:00,38.0,37.0,-100.00,East,90,0.0,1.0,98,0.00,,,-99.99,,2013-02-23 16:32:00,
2013-02-23 11:40:00,38.0,37.0,-100.00,North,359,3.0,5.0,97,0.00,,,-99.99,,2013-02-23 16:40:00,
2013-02-23 11:42:00,38.0,37.0,-100.00,East,90,0.0,1.0,98,0.00,,,-99.99,,2013-02-23 16:42:00,
2013-02-23 11:52:00,38.0,37.0,-100.00,NNW,333,4.0,6.0,97,0.01,,,-99.99,,2013-02-23 16:52:00,
2013-02-23 12:01:00,38.0,37.0,-100.00,NNW,333,4.0,6.0,97,0.01,,,-99.99,,2013-02-23 17:01:00,
2013-02-23 12:11:00,38.0,37.0,-100.00,North,359,3.0,5.0,97,0.00,,,-99.99,,2013-02-23 17:11:00,
2013-02-23 12:22:00,38.0,37.0,-100.00,North,359,3.0,5.0,97,0.00,,,-99.99,,2013-02-23 17:22:00,
2013-02-23 12:32:00,38.0,37.0,-100.00,North,359,3.0,5.0,97,0.00,,,-99.99,,2013-02-23 17:32:00,
2013-02-23 12:52:00,38.0,37.0,-100.00,NNE,23,7.0,10.0,96,0.00,,,-99.99,,2013-02-23 17:52:00,
2013-02-23 13:02:00,38.0,37.0,-100.00,NNE,23,7.0,10.0,96,0.00,,,-99.99,,2013-02-23 18:02:00,
2013-02-23 13:12:00,39.0,38.0,-100.00,NNW,347,3.0,5.0,96,0.00,,,-99.99,,2013-02-23 18:12:00,
2013-02-23 13:22:00,39.0,38.0,-100.00,NNW,347,3.0,5.0,96,0.00,,,-99.99,,2013-02-23 18:22:00,
2013-02-23 13:32:00,39.0,38.0,-100.00,NNW,333,3.0,5.0,96,0.00,,,-99.99,,2013-02-23 18:32:00,
2013-02-23 13:42:00,39.0,38.0,-100.00,NNW,337,5.0,8.0,96,0.00,,,-99.99,,2013-02-23 18:42:00,
2013-02-23 13:52:00,39.0,38.0,-100.00,NNW,337,5.0,8.0,96,0.00,,,-99.99,,2013-02-23 18:52:00,
2013-02-23 14:01:00,39.0,38.0,-100.00,NNW,337,5.0,8.0,96,0.00,,,-99.99,,2013-02-23 19:01:00,
2013-02-23 14:11:00,39.0,38.0,-100.00,North,11,3.0,5.0,96,0.00,,,-99.99,,2013-02-23 19:11:00,
2013-02-23 14:21:00,40.0,39.0,-100.00,North,4,2.0,4.0,95,0.00,,,-99.99,,2013-02-23 19:21:00,
2013-02-23 14:32:00,40.0,39.0,-100.00,North,4,2.0,4.0,95,0.00,,,-99.99,,2013-02-23 19:32:00,
2013-02-23 14:42:00,40.0,39.0,-100.00,North,4,2.0,4.0,95,0.00,,,-99.99,,2013-02-23 19:42:00,
2013-02-23 14:52:00,40.0,38.0,-100.00,NNE,17,6.0,8.0,95,0.00,,,-99.99,,2013-02-23 19:52:00,
2013-02-23 15:01:00,40.0,38.0,-100.00,North,0,2.0,4.0,95,0.00,,,-99.99,,2013-02-23 20:01:00,
2013-02-23 15:11:00,40.0,38.0,-100.00,North,0,2.0,4.0,95,0.00,,,-99.99,,2013-02-23 20:11:00,
2013-02-23 15:22:00,40.0,38.0,-100.00,North,0,2.0,4.0,95,0.00,,,-99.99,,2013-02-23 20:22:00,
2013-02-23 15:32:00,40.0,39.0,-100.00,NNW,329,4.0,7.0,95,0.00,,,-99.99,,2013-02-23 20:32:00,
2013-02-23 15:42:00,40.0,39.0,-100.00,NNW,329,4.0,7.0,95,0.00,,,-99.99,,2013-02-23 20:42:00,
2013-02-23 15:53:00,40.0,39.0,-100.00,North,1,3.0,5.0,94,0.00,,,-99.99,,2013-02-23 20:53:00,
2013-02-23 16:02:00,40.0,39.0,-100.00,North,1,3.0,5.0,94,0.00,,,-99.99,,2013-02-23 21:02:00,
2013-02-23 16:11:00,41.0,40.0,-100.00,North,357,1.0,2.0,94,0.00,,,-99.99,,2013-02-23 21:11:00,
2013-02-23 16:22:00,41.0,40.0,-100.00,NE,54,2.0,3.0,93,0.00,,,-99.99,,2013-02-23 21:22:00,
2013-02-23 16:32:00,41.0,40.0,-100.00,NE,54,2.0,3.0,93,0.00,,,-99.99,,2013-02-23 21:32:00,
2013-02-23 16:42:00,41.0,40.0,-100.00,NE,54,2.0,3.0,93,0.00,,,-99.99,,2013-02-23 21:42:00,
2013-02-23 16:52:00,41.0,40.0,-100.00,NE,41,2.0,3.0,93,0.00,,,-99.99,,2013-02-23 21:52:00,
2013-02-23 17:02:00,42.0,40.0,-100.00,NNW,344,2.0,3.0,93,0.00,,,-99.99,,2013-02-23 22:02:00,
2013-02-23 17:11:00,42.0,40.0,-100.00,NNW,344,2.0,3.0,93,0.00,,,-99.99,,2013-02-23 22:11:00,
2013-02-23 17:22:00,42.0,40.0,-100.00,NNW,344,2.0,3.0,93,0.00,,,-99.99,,2013-02-23 22:22:00,
2013-02-23 17:32:00,42.0,40.0,-100.00,NW,304,1.0,2.0,92,0.00,,,-99.99,,2013-02-23 22:32:00,
2013-02-23 17:42:00,42.0,40.0,-100.00,NW,304,1.0,2.0,92,0.00,,,-99.99,,2013-02-23 22:42:00,
2013-02-23 17:52:00,42.0,40.0,-100.00,NNW,336,2.0,3.0,92,0.00,,,-99.99,,2013-02-23 22:52:00,
2013-02-23 18:01:00,42.0,40.0,-100.00,NNW,336,2.0,3.0,92,0.00,,,-99.99,,2013-02-23 23:01:00,
2013-02-23 18:11:00,42.0,40.0,-100.00,NNE,24,0.0,1.0,93,0.00,,,-99.99,,2013-02-23 23:11:00,
2013-02-23 18:22:00,42.0,40.0,-100.00,NE,34,2.0,3.0,93,0.00,,,-99.99,,2013-02-23 23:22:00,
2013-02-23 18:32:00,42.0,40.0,-100.00,NE,34,2.0,3.0,93,0.00,,,-99.99,,2013-02-23 23:32:00,
2013-02-23 18:42:00,42.0,40.0,-100.00,NE,34,2.0,3.0,93,0.00,,,-99.99,,2013-02-23 23:42:00,
2013-02-23 18:52:00,42.0,40.0,-100.00,NNE,25,1.0,2.0,94,0.00,,,-99.99,,2013-02-23 23:52:00,
2013-02-23 19:01:00,42.0,40.0,-100.00,NNE,25,1.0,2.0,94,0.00,,,-99.99,,2013-02-24 00:01:00,
2013-02-23 19:11:00,42.0,40.0,-100.00,NE,47,0.0,1.0,94,0.00,,,-99.99,,2013-02-24 00:11:00,
2013-02-23 19:22:00,42.0,40.0,-100.00,NE,47,0.0,1.0,94,0.00,,,-99.99,,2013-02-24 00:22:00,
2013-02-23 19:32:00,41.0,40.0,-100.00,NE,45,0.0,1.0,95,0.00,,,-99.99,,2013-02-24 00:32:00,
2013-02-23 19:42:00,41.0,40.0,-100.00,NE,45,0.0,1.0,95,0.00,,,-99.99,,2013-02-24 00:42:00,
2013-02-23 19:52:00,41.0,40.0,-100.00,East,95,0.0,0.0,96,0.00,,,-99.99,,2013-02-24 00:52:00,
2013-02-23 20:01:00,40.0,39.0,-100.00,East,95,0.0,0.0,96,0.00,,,-99.99,,2013-02-24 01:01:00,
2013-02-23 20:11:00,40.0,39.0,-100.00,East,95,0.0,0.0,96,0.00,,,-99.99,,2013-02-24 01:11:00,
2013-02-23 20:22:00,40.0,39.0,-100.00,SW,233,1.0,2.0,96,0.00,,,-99.99,,2013-02-24 01:22:00,
2013-02-23 20:32:00,40.0,39.0,-100.00,SW,233,1.0,2.0,96,0.00,,,-99.99,,2013-02-24 01:32:00,
2013-02-23 20:42:00,40.0,39.0,-100.00,SW,233,1.0,2.0,96,0.00,,,-99.99,,2013-02-24 01:42:00,
2013-02-23 20:52:00,40.0,39.0,-100.00,WSW,237,1.0,1.0,97,0.00,,,-99.99,,2013-02-24 01:52:00,
2013-02-23 21:01:00,40.0,39.0,-100.00,WSW,237,1.0,1.0,97,0.00,,,-99.99,,2013-02-24 02:01:00,
2013-02-23 21:11:00,40.0,39.0,-100.00,WSW,239,1.0,2.0,97,0.00,,,-99.99,,2013-02-24 02:11:00,
2013-02-23 21:22:00,39.0,39.0,-100.00,SW,224,0.0,1.0,97,0.00,,,-99.99,,2013-02-24 02:22:00,
2013-02-23 21:32:00,39.0,39.0,-100.00,SW,224,0.0,1.0,97,0.00,,,-99.99,,2013-02-24 02:32:00,
2013-02-23 21:42:00,39.0,39.0,-100.00,SW,224,0.0,1.0,97,0.00,,,-99.99,,2013-02-24 02:42:00,
2013-02-23 21:52:00,40.0,39.0,-100.00,East,80,0.0,2.0,97,0.00,,,-99.99,,2013-02-24 02:52:00,
2013-02-23 22:02:00,40.0,39.0,-100.00,East,80,0.0,2.0,97,0.00,,,-99.99,,2013-02-24 03:02:00,
2013-02-23 22:12:00,40.0,40.0,-100.00,SW,230,0.0,1.0,97,0.00,,,-99.99,,2013-02-24 03:12:00,
2013-02-23 22:22:00,40.0,40.0,-100.00,West,267,0.0,1.0,97,0.00,,,-99.99,,2013-02-24 03:22:00,
2013-02-23 22:32:00,40.0,40.0,-100.00,West,267,0.0,1.0,97,0.00,,,-99.99,,2013-02-24 03:32:00,
2013-02-23 22:42:00,40.0,40.0,-100.00,West,267,0.0,1.0,97,0.00,,,-99.99,,2013-02-24 03:42:00,
2013-02-23 22:52:00,40.0,40.0,-100.00,SSE,164,1.0,2.0,97,0.00,,,-99.99,,2013-02-24 03:52:00,
2013-02-23 23:02:00,40.0,40.0,-100.00,SSE,164,1.0,2.0,97,0.00,,,-99.99,,2013-02-24 04:02:00,
2013-02-23 23:11:00,41.0,40.0,-100.00,West,271,1.0,2.0,97,0.00,,,-99.99,,2013-02-24 04:11:00,
2013-02-23 23:22:00,41.0,40.0,-100.00,West,271,1.0,2.0,97,0.00,,,-99.99,,2013-02-24 04:22:00,
2013-02-23 23:32:00,40.0,40.0,-100.00,West,268,1.0,1.0,98,0.00,,,-99.99,,2013-02-24 04:32:00,
2013-02-23 23:42:00,40.0,40.0,-100.00,West,268,1.0,1.0,98,0.00,,,-99.99,,2013-02-24 04:42:00,
2013-02-23 23:52:00,41.0,40.0,-100.00,SW,227,0.0,1.0,98,0.00,,,-99.99,,2013-02-24 04:52:00,